Time;durP1;ratioP1;P1;durP2;ratioP2;P2;SDS_P1;SDS_P2;PMS_P1;PMS_P2;Temp;Humidity;BMP_temperature;BMP_pressure;BME280_temperature;BME280_humidity;BME280_pressure;Samples;Min_cycle;Max_cycle;Signal;HPM_P1;HPM_P2
2022/09/11 00:01:22;;;;;;;4.82;4.20;;;;;;;;;;5083102;28;20287;-15
2022/09/11 00:03:49;;;;;;;4.90;4.32;;;;;;;;;;5075781;28;20229;-16
2022/09/11 00:06:18;;;;;;;6.57;4.60;;;;;;;;;;5082188;28;20233;-15
2022/09/11 00:08:59;;;;;;;6.53;4.47;;;;;;;;;;5091383;28;20306;-15
2022/09/11 00:11:27;;;;;;;6.50;3.92;;;;;;;;;;5092146;28;21004;-15
2022/09/11 00:13:55;;;;;;;4.80;3.72;;;;;;;;;;5091684;28;20228;-14
2022/09/11 00:16:26;;;;;;;4.55;4.15;;;;;;;;;;5091466;28;20772;-15
2022/09/11 00:18:54;;;;;;;4.88;4.20;;;;;;;;;;5075567;28;20724;-15
2022/09/11 00:21:21;;;;;;;5.10;4.18;;;;;;;;;;5071887;28;20774;-16
2022/09/11 00:23:49;;;;;;;4.85;4.35;;;;;;;;;;5071676;28;20798;-15
2022/09/11 00:26:18;;;;;;;6.70;5.13;;;;;;;;;;5072600;28;20699;-15
2022/09/11 00:28:45;;;;;;;6.10;4.90;;;;;;;;;;5091933;28;20224;-15
2022/09/11 00:31:13;;;;;;;8.00;5.75;;;;;;;;;;5092159;28;20236;-15
2022/09/11 00:33:40;;;;;;;5.85;4.15;;;;;;;;;;5077141;28;20236;-15
2022/09/11 00:36:08;;;;;;;5.85;4.47;;;;;;;;;;5070700;28;20245;-15
2022/09/11 00:38:36;;;;;;;5.57;4.50;;;;;;;;;;5075781;28;20676;-15
2022/09/11 00:41:04;;;;;;;5.65;4.40;;;;;;;;;;5071847;28;20233;-15
2022/09/11 00:43:47;;;;;;;5.53;4.32;;;;;;;;;;5080735;28;20225;-15
2022/09/11 00:46:15;;;;;;;5.28;4.00;;;;;;;;;;5071325;28;20241;-15
2022/09/11 00:48:43;;;;;;;5.57;4.45;;;;;;;;;;5076395;28;20229;-15
2022/09/11 00:51:10;;;;;;;4.90;4.50;;;;;;;;;;5091734;28;21021;-15
2022/09/11 00:53:37;;;;;;;7.07;4.55;;;;;;;;;;5077648;28;20225;-15
2022/09/11 00:56:05;;;;;;;4.65;4.25;;;;;;;;;;5071498;28;20982;-15
2022/09/11 00:58:34;;;;;;;6.50;4.32;;;;;;;;;;5083939;28;20695;-15
2022/09/11 01:01:02;;;;;;;6.00;4.90;;;;;;;;;;5081987;28;20229;-15
2022/09/11 01:03:31;;;;;;;5.00;4.50;;;;;;;;;;5072361;28;20233;-15
2022/09/11 01:05:58;;;;;;;4.90;4.40;;;;;;;;;;5078160;28;20430;-15
2022/09/11 01:08:26;;;;;;;6.25;4.38;;;;;;;;;;5087714;28;20240;-15
2022/09/11 01:10:56;;;;;;;4.65;4.18;;;;;;;;;;5090621;28;20303;-15
2022/09/11 01:13:26;;;;;;;5.53;4.75;;;;;;;;;;5087847;28;20680;-15
2022/09/11 01:16:01;;;;;;;4.53;4.00;;;;;;;;;;5089893;28;20245;-15
2022/09/11 01:18:29;;;;;;;4.82;4.32;;;;;;;;;;5090760;28;20287;-14
2022/09/11 01:21:04;;;;;;;4.97;4.57;;;;;;;;;;5091424;28;20664;-15
2022/09/11 01:23:33;;;;;;;4.95;4.38;;;;;;;;;;5077536;28;20287;-15
2022/09/11 01:26:06;;;;;;;4.70;4.30;;;;;;;;;;5070121;28;20280;-15
2022/09/11 01:28:36;;;;;;;7.07;4.30;;;;;;;;;;5082562;28;20229;-15
2022/09/11 01:31:06;;;;;;;4.53;4.10;;;;;;;;;;5082891;28;21024;-15
2022/09/11 01:33:34;;;;;;;5.35;4.65;;;;;;;;;;5071109;28;20250;-15
2022/09/11 01:36:03;;;;;;;5.28;4.78;;;;;;;;;;5086792;28;20224;-15
2022/09/11 01:38:32;;;;;;;5.10;4.40;;;;;;;;;;5088938;28;20244;-15
2022/09/11 01:41:00;;;;;;;7.50;4.88;;;;;;;;;;5091124;28;20282;-15
2022/09/11 01:43:29;;;;;;;6.25;4.88;;;;;;;;;;5078450;28;20225;-15
2022/09/11 01:45:58;;;;;;;5.53;4.45;;;;;;;;;;5069888;28;20233;-15
2022/09/11 01:48:26;;;;;;;4.63;4.13;;;;;;;;;;5070651;28;20268;-15
2022/09/11 01:50:53;;;;;;;5.63;4.47;;;;;;;;;;5084369;28;20307;-15
2022/09/11 01:53:21;;;;;;;4.90;4.40;;;;;;;;;;5083878;28;20236;-16
2022/09/11 01:55:49;;;;;;;6.40;5.05;;;;;;;;;;5091125;28;20279;-15
2022/09/11 01:58:18;;;;;;;6.28;4.35;;;;;;;;;;5090187;28;20236;-15
2022/09/11 02:00:45;;;;;;;4.82;4.30;;;;;;;;;;5090554;28;20268;-15
2022/09/11 02:03:15;;;;;;;4.45;4.03;;;;;;;;;;5078738;28;20249;-15
2022/09/11 02:05:44;;;;;;;5.10;4.60;;;;;;;;;;5070499;28;20225;-15
2022/09/11 02:08:12;;;;;;;6.05;4.78;;;;;;;;;;5081047;28;20239;-15
2022/09/11 02:10:41;;;;;;;4.72;4.30;;;;;;;;;;5090748;28;20217;-15
2022/09/11 02:13:11;;;;;;;5.72;4.45;;;;;;;;;;5084922;28;20263;-15
2022/09/11 02:15:39;;;;;;;6.05;4.78;;;;;;;;;;5084642;28;20253;-14
2022/09/11 02:18:08;;;;;;;4.82;4.35;;;;;;;;;;5080177;28;20255;-14
2022/09/11 02:20:37;;;;;;;6.20;4.78;;;;;;;;;;5090531;28;20825;-15
2022/09/11 02:23:05;;;;;;;5.47;4.50;;;;;;;;;;5082276;22;20522;-15
2022/09/11 02:25:33;;;;;;;5.30;4.70;;;;;;;;;;5050948;28;20238;-15
2022/09/11 02:28:00;;;;;;;5.13;4.47;;;;;;;;;;5068279;28;20241;-15
2022/09/11 02:30:27;;;;;;;4.53;4.13;;;;;;;;;;5069877;28;20229;-15
2022/09/11 02:32:55;;;;;;;6.13;4.40;;;;;;;;;;5070437;28;20237;-15
2022/09/11 02:35:23;;;;;;;4.95;4.38;;;;;;;;;;5069682;28;20233;-15
2022/09/11 02:37:53;;;;;;;5.45;4.60;;;;;;;;;;5080188;28;20275;-15
2022/09/11 02:40:26;;;;;;;4.97;4.47;;;;;;;;;;5075373;28;20233;-15
2022/09/11 02:43:02;;;;;;;7.05;5.25;;;;;;;;;;5070222;28;20214;-15
2022/09/11 02:45:34;;;;;;;5.57;5.00;;;;;;;;;;5069669;28;20709;-15
2022/09/11 02:48:05;;;;;;;4.75;4.25;;;;;;;;;;5078970;28;20247;-15
2022/09/11 02:50:33;;;;;;;4.68;4.15;;;;;;;;;;5089986;28;20315;-15
2022/09/11 02:53:04;;;;;;;5.13;4.63;;;;;;;;;;5081232;28;20218;-15
2022/09/11 02:55:34;;;;;;;5.18;4.68;;;;;;;;;;5069327;28;20654;-15
2022/09/11 02:58:02;;;;;;;5.43;4.90;;;;;;;;;;5069804;28;20275;-15
2022/09/11 03:00:29;;;;;;;5.47;4.30;;;;;;;;;;5089996;28;20241;-15
2022/09/11 03:02:57;;;;;;;5.40;4.72;;;;;;;;;;5080915;28;20734;-15
2022/09/11 03:05:24;;;;;;;5.68;4.55;;;;;;;;;;5072716;28;20300;-15
2022/09/11 03:07:51;;;;;;;4.32;3.97;;;;;;;;;;5072716;28;20233;-15
2022/09/11 03:10:20;;;;;;;5.35;4.60;;;;;;;;;;5073592;28;20206;-15
2022/09/11 03:12:47;;;;;;;4.65;4.22;;;;;;;;;;5079489;28;20761;-15
2022/09/11 03:15:16;;;;;;;4.65;4.18;;;;;;;;;;5091654;28;20286;-15
2022/09/11 03:17:43;;;;;;;5.07;4.40;;;;;;;;;;5072837;28;20283;-15
2022/09/11 03:20:10;;;;;;;4.53;4.13;;;;;;;;;;5082173;28;20651;-15
2022/09/11 03:22:38;;;;;;;4.95;4.45;;;;;;;;;;5088110;28;20249;-15
2022/09/11 03:25:06;;;;;;;4.07;3.78;;;;;;;;;;5072953;28;20699;-15
2022/09/11 03:27:37;;;;;;;5.80;4.38;;;;;;;;;;5072887;28;20257;-15
2022/09/11 03:30:05;;;;;;;4.68;4.28;;;;;;;;;;5072743;28;20232;-15
2022/09/11 03:32:32;;;;;;;4.40;4.00;;;;;;;;;;5058983;28;20236;-15
2022/09/11 03:35:01;;;;;;;5.53;5.03;;;;;;;;;;5093016;28;20302;-15
2022/09/11 03:37:28;;;;;;;5.95;4.70;;;;;;;;;;5090143;28;21031;-15
2022/09/11 03:39:55;;;;;;;5.35;4.85;;;;;;;;;;5071968;28;20307;-15
2022/09/11 03:42:23;;;;;;;5.53;4.35;;;;;;;;;;5073401;28;20225;-15
2022/09/11 03:44:51;;;;;;;4.45;4.05;;;;;;;;;;5077746;28;20270;-15
2022/09/11 03:47:21;;;;;;;4.93;4.53;;;;;;;;;;5073430;28;20704;-15
2022/09/11 03:49:48;;;;;;;5.32;4.82;;;;;;;;;;5073068;28;20336;-15
2022/09/11 03:52:15;;;;;;;6.10;5.03;;;;;;;;;;5073006;28;20279;-15
2022/09/11 03:54:43;;;;;;;6.57;5.35;;;;;;;;;;5092203;28;20696;-15
2022/09/11 03:57:10;;;;;;;5.80;5.28;;;;;;;;;;5073326;28;20288;-15
2022/09/11 03:59:38;;;;;;;5.65;5.07;;;;;;;;;;5072728;28;21090;-15
2022/09/11 04:02:06;;;;;;;5.88;5.07;;;;;;;;;;5072790;28;20287;-15
2022/09/11 04:04:34;;;;;;;6.57;5.13;;;;;;;;;;5072352;28;20226;-15
2022/09/11 04:07:02;;;;;;;5.88;4.65;;;;;;;;;;5072607;28;20303;-15
2022/09/11 04:09:30;;;;;;;5.68;5.15;;;;;;;;;;5090632;28;20236;-15
2022/09/11 04:11:57;;;;;;;5.78;4.93;;;;;;;;;;5092620;28;20282;-15
2022/09/11 04:14:25;;;;;;;5.15;4.65;;;;;;;;;;5072553;28;20287;-15
2022/09/11 04:16:52;;;;;;;4.95;4.55;;;;;;;;;;5072143;28;20280;-15
2022/09/11 04:19:22;;;;;;;4.93;4.18;;;;;;;;;;5071781;28;20295;-15
2022/09/11 04:21:49;;;;;;;5.07;4.10;;;;;;;;;;5071597;28;20240;-15
2022/09/11 04:24:17;;;;;;;4.88;3.90;;;;;;;;;;5079482;28;21064;-15
2022/09/11 04:26:44;;;;;;;4.70;4.30;;;;;;;;;;5072426;28;20233;-15
2022/09/11 04:29:11;;;;;;;4.40;4.00;;;;;;;;;;5088635;28;21597;-15
2022/09/11 04:31:39;;;;;;;4.20;3.80;;;;;;;;;;5079151;28;20989;-15
2022/09/11 04:34:08;;;;;;;4.80;4.00;;;;;;;;;;5071389;28;20236;-15
2022/09/11 04:36:36;;;;;;;4.00;3.70;;;;;;;;;;5071933;28;20226;-15
2022/09/11 04:39:03;;;;;;;4.43;4.00;;;;;;;;;;5087528;28;20282;-15
2022/09/11 04:41:31;;;;;;;4.68;4.13;;;;;;;;;;5092043;28;20286;-15
2022/09/11 04:43:59;;;;;;;4.32;3.92;;;;;;;;;;5074170;28;20276;-15
2022/09/11 04:46:32;;;;;;;4.68;4.15;;;;;;;;;;5070874;28;20283;-15
2022/09/11 04:48:59;;;;;;;4.90;4.45;;;;;;;;;;5071889;28;20295;-15
2022/09/11 04:51:27;;;;;;;4.78;4.38;;;;;;;;;;5071520;28;20692;-15
2022/09/11 04:53:57;;;;;;;4.30;3.90;;;;;;;;;;5086226;28;20221;-15
2022/09/11 04:56:24;;;;;;;3.95;3.55;;;;;;;;;;5088686;28;20278;-15
2022/09/11 04:58:52;;;;;;;4.15;3.75;;;;;;;;;;5085414;28;21081;-15
2022/09/11 05:01:20;;;;;;;3.90;3.50;;;;;;;;;;5081414;28;20233;-15
2022/09/11 05:03:47;;;;;;;3.70;3.40;;;;;;;;;;5072633;28;20237;-15
2022/09/11 05:06:15;;;;;;;3.75;3.45;;;;;;;;;;5071425;28;20224;-15
2022/09/11 05:08:42;;;;;;;4.30;3.90;;;;;;;;;;5082678;28;20241;-15
2022/09/11 05:11:12;;;;;;;4.82;4.43;;;;;;;;;;5091446;28;20229;-15
2022/09/11 05:13:39;;;;;;;4.72;4.20;;;;;;;;;;5091682;28;20213;-15
2022/09/11 05:16:07;;;;;;;5.03;3.95;;;;;;;;;;5082643;28;20284;-14
2022/09/11 05:18:35;;;;;;;3.60;3.30;;;;;;;;;;5070335;28;21109;-15
2022/09/11 05:21:03;;;;;;;3.67;3.38;;;;;;;;;;5070047;28;20232;-15
2022/09/11 05:23:31;;;;;;;3.95;3.55;;;;;;;;;;5082036;28;20241;-15
2022/09/11 05:25:58;;;;;;;3.60;3.22;;;;;;;;;;5091476;28;20282;-15
2022/09/11 05:28:27;;;;;;;4.13;3.28;;;;;;;;;;5077618;28;20249;-15
2022/09/11 05:30:55;;;;;;;3.13;2.83;;;;;;;;;;5071312;28;20310;-15
2022/09/11 05:33:23;;;;;;;3.55;3.25;;;;;;;;;;5070419;28;20708;-15
2022/09/11 05:35:50;;;;;;;3.28;3.00;;;;;;;;;;5070908;28;20222;-15
2022/09/11 05:38:18;;;;;;;3.13;2.92;;;;;;;;;;5071043;28;20233;-15
2022/09/11 05:40:45;;;;;;;3.35;3.05;;;;;;;;;;5070154;28;20233;-15
2022/09/11 05:43:14;;;;;;;3.55;3.25;;;;;;;;;;5079444;28;20262;-15
2022/09/11 05:45:43;;;;;;;3.38;3.08;;;;;;;;;;5078230;28;20291;-15
2022/09/11 05:48:10;;;;;;;3.35;3.05;;;;;;;;;;5079299;28;20225;-15
2022/09/11 05:50:37;;;;;;;3.30;3.00;;;;;;;;;;5091148;28;20309;-15
2022/09/11 05:53:05;;;;;;;3.13;2.63;;;;;;;;;;5073777;28;21104;-15
2022/09/11 05:55:33;;;;;;;3.63;3.33;;;;;;;;;;5070794;28;20234;-15
2022/09/11 05:58:01;;;;;;;3.38;3.08;;;;;;;;;;5070409;28;20303;-15
2022/09/11 06:00:28;;;;;;;3.63;3.33;;;;;;;;;;5070532;28;20746;-14
2022/09/11 06:02:57;;;;;;;3.63;3.33;;;;;;;;;;5071421;28;20279;-15
2022/09/11 06:05:25;;;;;;;3.88;3.58;;;;;;;;;;5070611;28;20230;-15
2022/09/11 06:07:52;;;;;;;4.13;3.50;;;;;;;;;;5070688;28;20233;-15
2022/09/11 06:10:19;;;;;;;4.93;3.55;;;;;;;;;;5070493;28;20230;-15
2022/09/11 06:12:47;;;;;;;3.58;3.28;;;;;;;;;;5070470;28;20319;-15
2022/09/11 06:15:14;;;;;;;3.03;2.80;;;;;;;;;;5069693;28;20295;-15
2022/09/11 06:18:06;;;;;;;3.38;3.08;;;;;;;;;;5071170;28;20348;-15
2022/09/11 06:20:33;;;;;;;2.97;2.78;;;;;;;;;;5070436;28;20595;-15
2022/09/11 06:23:00;;;;;;;2.63;2.42;;;;;;;;;;5069673;28;20351;-15
2022/09/11 06:25:34;;;;;;;3.00;2.80;;;;;;;;;;5069600;28;20324;-15
2022/09/11 06:28:02;;;;;;;3.00;2.72;;;;;;;;;;5077417;28;21042;-15
2022/09/11 06:30:29;;;;;;;3.28;2.97;;;;;;;;;;5086872;28;20233;-15
2022/09/11 06:32:58;;;;;;;2.60;2.40;;;;;;;;;;5071680;28;20237;-15
2022/09/11 06:35:27;;;;;;;3.08;2.78;;;;;;;;;;5073081;28;20299;-15
2022/09/11 06:37:54;;;;;;;2.60;2.40;;;;;;;;;;5083785;28;20217;-15
2022/09/11 06:40:22;;;;;;;3.65;2.50;;;;;;;;;;5079088;28;20229;-15
2022/09/11 06:42:49;;;;;;;2.90;2.70;;;;;;;;;;5073803;28;20226;-15
2022/09/11 06:45:17;;;;;;;3.80;2.92;;;;;;;;;;5073933;28;20276;-15
2022/09/11 06:47:44;;;;;;;2.95;2.70;;;;;;;;;;5077766;28;20233;-15
2022/09/11 06:50:12;;;;;;;2.95;2.47;;;;;;;;;;5073649;28;20869;-15
2022/09/11 06:52:41;;;;;;;2.58;2.38;;;;;;;;;;5073342;28;20217;-15
2022/09/11 06:55:12;;;;;;;3.42;3.13;;;;;;;;;;5073492;28;20217;-15
2022/09/11 06:57:40;;;;;;;5.10;2.95;;;;;;;;;;5076802;28;20279;-15
2022/09/11 07:00:09;;;;;;;3.88;3.55;;;;;;;;;;5093543;28;20626;-15
2022/09/11 07:02:36;;;;;;;3.28;3.05;;;;;;;;;;5076655;28;20302;-15
2022/09/11 07:05:04;;;;;;;2.95;2.75;;;;;;;;;;5093182;28;20240;-15
2022/09/11 07:07:32;;;;;;;2.80;2.58;;;;;;;;;;5088920;28;21216;-15
2022/09/11 07:10:03;;;;;;;3.15;2.92;;;;;;;;;;5076847;28;20237;-15
2022/09/11 07:12:31;;;;;;;2.97;2.78;;;;;;;;;;5072669;28;21124;-15
2022/09/11 07:14:58;;;;;;;2.92;2.70;;;;;;;;;;5073260;28;20697;-15
2022/09/11 07:17:26;;;;;;;2.95;2.75;;;;;;;;;;5075085;28;20272;-15
2022/09/11 07:19:53;;;;;;;2.75;2.55;;;;;;;;;;5085783;28;20237;-15
2022/09/11 07:22:20;;;;;;;3.40;3.10;;;;;;;;;;5074630;28;20303;-15
2022/09/11 07:24:48;;;;;;;3.60;3.30;;;;;;;;;;5093585;28;20221;-15
2022/09/11 07:27:18;;;;;;;4.05;3.75;;;;;;;;;;5092898;28;20233;-15
2022/09/11 07:29:45;;;;;;;4.63;4.20;;;;;;;;;;5092819;28;20237;-15
2022/09/11 07:32:12;;;;;;;4.78;4.10;;;;;;;;;;5090484;28;20700;-15
2022/09/11 07:34:40;;;;;;;4.60;4.20;;;;;;;;;;5074203;28;20283;-15
2022/09/11 07:37:07;;;;;;;4.70;4.28;;;;;;;;;;5073446;28;20233;-15
2022/09/11 07:39:34;;;;;;;4.70;4.30;;;;;;;;;;5052532;28;20245;-15
2022/09/11 07:42:02;;;;;;;4.20;3.80;;;;;;;;;;5059618;28;20230;-15
2022/09/11 07:44:30;;;;;;;5.03;4.35;;;;;;;;;;5071842;28;20221;-15
2022/09/11 07:46:59;;;;;;;4.93;4.53;;;;;;;;;;5072702;28;21062;-15
2022/09/11 07:49:27;;;;;;;5.50;4.88;;;;;;;;;;5072651;28;20317;-15
2022/09/11 07:51:54;;;;;;;4.80;4.40;;;;;;;;;;5072707;28;20229;-15
2022/09/11 07:54:22;;;;;;;5.07;4.57;;;;;;;;;;5090016;28;20549;-15
2022/09/11 07:56:49;;;;;;;6.00;5.40;;;;;;;;;;5092710;28;20382;-15
2022/09/11 07:59:17;;;;;;;5.93;5.38;;;;;;;;;;5092209;28;20232;-15
2022/09/11 08:01:45;;;;;;;5.07;4.60;;;;;;;;;;5077397;28;20229;-15
2022/09/11 08:04:14;;;;;;;5.88;4.28;;;;;;;;;;5079304;28;20680;-15
2022/09/11 08:06:41;;;;;;;3.63;3.33;;;;;;;;;;5092725;28;20973;-15
2022/09/11 08:09:09;;;;;;;3.85;3.35;;;;;;;;;;5091801;28;20938;-15
2022/09/11 08:11:37;;;;;;;4.53;4.13;;;;;;;;;;5051599;28;20252;-15
2022/09/11 08:14:06;;;;;;;4.97;4.50;;;;;;;;;;5083681;28;20232;-15
2022/09/11 08:16:35;;;;;;;4.20;3.85;;;;;;;;;;5071784;28;20229;-15
2022/09/11 08:19:03;;;;;;;4.65;4.25;;;;;;;;;;5084492;28;20640;-15
2022/09/11 08:21:31;;;;;;;4.75;4.35;;;;;;;;;;5071553;28;20249;-15
2022/09/11 08:23:58;;;;;;;3.35;3.05;;;;;;;;;;5072074;28;20229;-15
2022/09/11 08:26:27;;;;;;;3.55;3.25;;;;;;;;;;5070538;28;20238;-15
2022/09/11 08:28:55;;;;;;;3.28;2.85;;;;;;;;;;5086684;28;20248;-15
2022/09/11 08:31:24;;;;;;;3.10;2.80;;;;;;;;;;5090517;28;20774;-15
2022/09/11 08:33:52;;;;;;;3.42;3.13;;;;;;;;;;5092370;28;20216;-15
2022/09/11 08:36:20;;;;;;;3.58;3.28;;;;;;;;;;5089861;28;20213;-15
2022/09/11 08:38:48;;;;;;;3.22;2.95;;;;;;;;;;5083806;28;20967;-15
2022/09/11 08:41:19;;;;;;;3.45;3.17;;;;;;;;;;5071624;28;20328;-15
2022/09/11 08:43:49;;;;;;;3.30;3.00;;;;;;;;;;5071738;28;20225;-15
2022/09/11 08:46:17;;;;;;;3.30;3.00;;;;;;;;;;5071595;28;20238;-15
2022/09/11 08:48:45;;;;;;;3.15;2.95;;;;;;;;;;5083181;28;20900;-15
2022/09/11 08:51:13;;;;;;;4.40;4.00;;;;;;;;;;5080229;28;20304;-15
2022/09/11 08:53:42;;;;;;;5.25;4.68;;;;;;;;;;5091549;28;20228;-15
2022/09/11 08:56:12;;;;;;;6.63;4.70;;;;;;;;;;5091320;28;20229;-15
2022/09/11 08:58:40;;;;;;;5.13;4.63;;;;;;;;;;5078705;28;20267;-15
2022/09/11 09:01:09;;;;;;;5.40;4.90;;;;;;;;;;5071501;28;20275;-15
2022/09/11 09:03:40;;;;;;;5.00;4.50;;;;;;;;;;5089044;28;20228;-14
2022/09/11 09:06:12;;;;;;;6.32;4.88;;;;;;;;;;5091420;28;20240;-15
2022/09/11 09:08:44;;;;;;;5.05;4.55;;;;;;;;;;5079079;28;20230;-15
2022/09/11 09:11:14;;;;;;;5.63;5.13;;;;;;;;;;5071078;28;20253;-15
2022/09/11 09:13:49;;;;;;;7.43;5.93;;;;;;;;;;5071275;28;20233;-15
2022/09/11 09:16:21;;;;;;;7.63;6.82;;;;;;;;;;5079339;28;20761;-15
2022/09/11 09:18:49;;;;;;;8.13;7.32;;;;;;;;;;5089914;28;20225;-15
2022/09/11 09:21:19;;;;;;;7.07;6.32;;;;;;;;;;5070193;28;20272;-15
2022/09/11 09:23:48;;;;;;;7.93;7.13;;;;;;;;;;5071395;28;20230;-15
2022/09/11 09:26:17;;;;;;;8.65;7.85;;;;;;;;;;5071128;28;21053;-15
2022/09/11 09:28:45;;;;;;;9.55;8.27;;;;;;;;;;5071011;28;20234;-15
2022/09/11 09:31:13;;;;;;;9.88;8.85;;;;;;;;;;5070684;28;20295;-15
2022/09/11 09:33:41;;;;;;;8.00;7.20;;;;;;;;;;5071416;28;20743;-15
2022/09/11 09:36:13;;;;;;;9.88;8.45;;;;;;;;;;5070939;28;20236;-15
2022/09/11 09:38:40;;;;;;;9.13;8.23;;;;;;;;;;5072001;28;20233;-15
2022/09/11 09:41:14;;;;;;;8.55;7.68;;;;;;;;;;5070480;28;20647;-15
2022/09/11 09:43:44;;;;;;;8.85;8.00;;;;;;;;;;5070270;28;20229;-15
2022/09/11 09:46:14;;;;;;;8.00;6.40;;;;;;;;;;5071996;28;20284;-15
2022/09/11 09:48:42;;;;;;;5.88;5.28;;;;;;;;;;5071166;28;20214;-15
2022/09/11 09:51:11;;;;;;;7.25;6.55;;;;;;;;;;5058614;28;20237;-15
2022/09/11 09:53:39;;;;;;;8.05;6.70;;;;;;;;;;5077378;28;20234;-15
2022/09/11 09:56:07;;;;;;;9.27;7.47;;;;;;;;;;5069758;28;20241;-15
2022/09/11 09:58:36;;;;;;;7.25;6.53;;;;;;;;;;5069792;28;20221;-15
2022/09/11 10:01:04;;;;;;;7.90;7.10;;;;;;;;;;5070067;28;20225;-15
2022/09/11 10:03:32;;;;;;;7.68;6.88;;;;;;;;;;5070766;28;20240;-15
2022/09/11 10:06:00;;;;;;;8.60;6.60;;;;;;;;;;5069424;28;20782;-15
2022/09/11 10:08:28;;;;;;;9.85;5.78;;;;;;;;;;5072801;28;20238;-15
2022/09/11 10:10:56;;;;;;;10.73;5.60;;;;;;;;;;5074808;28;20229;-15
2022/09/11 10:13:24;;;;;;;8.25;5.57;;;;;;;;;;5084784;28;20271;-16
2022/09/11 10:15:53;;;;;;;13.70;5.03;;;;;;;;;;5087240;28;20233;-15
2022/09/11 10:18:21;;;;;;;16.48;5.57;;;;;;;;;;5084283;28;20252;-15
2022/09/11 10:20:48;;;;;;;7.90;5.45;;;;;;;;;;5077048;28;20229;-15
2022/09/11 10:23:22;;;;;;;12.77;6.82;;;;;;;;;;5071547;28;21123;-15
2022/09/11 10:25:50;;;;;;;13.07;5.85;;;;;;;;;;5073634;28;20232;-15
2022/09/11 10:28:18;;;;;;;9.30;5.03;;;;;;;;;;5082641;28;20258;-15
2022/09/11 10:30:47;;;;;;;8.40;4.78;;;;;;;;;;5084359;28;20336;-15
2022/09/11 10:33:17;;;;;;;9.13;5.07;;;;;;;;;;5066881;28;20248;-15
2022/09/11 10:35:49;;;;;;;7.80;5.30;;;;;;;;;;5065494;28;20299;-15
2022/09/11 10:38:17;;;;;;;5.85;4.20;;;;;;;;;;5074139;28;21026;-15
2022/09/11 10:40:58;;;;;;;8.25;4.72;;;;;;;;;;5067336;28;20218;-15
2022/09/11 10:43:26;;;;;;;8.95;4.60;;;;;;;;;;5076364;28;20251;-15
2022/09/11 10:46:03;;;;;;;12.52;4.65;;;;;;;;;;5060140;28;20218;-15
2022/09/11 10:48:32;;;;;;;8.15;4.45;;;;;;;;;;5080679;28;20228;-15
2022/09/11 10:51:06;;;;;;;4.90;3.95;;;;;;;;;;5091611;28;20259;-15
2022/09/11 10:53:34;;;;;;;10.40;4.43;;;;;;;;;;5093711;28;20684;-14
2022/09/11 10:56:02;;;;;;;10.25;3.80;;;;;;;;;;5092167;28;20745;-15
2022/09/11 10:58:30;;;;;;;9.50;4.25;;;;;;;;;;5092519;28;20225;-15
2022/09/11 11:00:57;;;;;;;9.80;4.07;;;;;;;;;;5082919;28;20585;-15
2022/09/11 11:03:25;;;;;;;8.15;4.10;;;;;;;;;;5073234;28;20225;-15
2022/09/11 11:05:56;;;;;;;8.95;3.97;;;;;;;;;;5072936;28;20232;-15
2022/09/11 11:08:27;;;;;;;5.78;4.20;;;;;;;;;;5082861;28;20233;-15
2022/09/11 11:11:01;;;;;;;5.43;4.05;;;;;;;;;;5086229;28;20758;-15
2022/09/11 11:13:31;;;;;;;6.53;3.97;;;;;;;;;;5083953;28;21094;-15
2022/09/11 11:16:01;;;;;;;5.28;3.33;;;;;;;;;;5078049;28;20359;-15
2022/09/11 11:18:31;;;;;;;6.00;3.78;;;;;;;;;;5072637;28;20320;-15
2022/09/11 11:21:01;;;;;;;7.35;3.70;;;;;;;;;;5072787;28;20764;-15
2022/09/11 11:23:38;;;;;;;4.45;3.80;;;;;;;;;;5074738;28;20319;-15
2022/09/11 11:26:15;;;;;;;4.95;3.50;;;;;;;;;;5093631;28;20594;-15
2022/09/11 11:28:47;;;;;;;5.97;3.45;;;;;;;;;;5079864;28;20275;-15
2022/09/11 11:31:22;;;;;;;6.53;3.88;;;;;;;;;;5076804;28;20230;-15
2022/09/11 11:33:56;;;;;;;5.65;4.38;;;;;;;;;;5071539;28;20571;-15
2022/09/11 11:36:25;;;;;;;7.72;3.72;;;;;;;;;;5072451;28;20230;-15
2022/09/11 11:38:59;;;;;;;4.43;3.47;;;;;;;;;;5072365;28;20991;-15
2022/09/11 11:41:28;;;;;;;4.00;3.40;;;;;;;;;;5082881;28;20239;-15
2022/09/11 11:43:55;;;;;;;4.88;4.03;;;;;;;;;;5077175;28;20229;-15
2022/09/11 11:46:23;;;;;;;6.38;4.03;;;;;;;;;;5071999;28;20334;-15
2022/09/11 11:48:52;;;;;;;7.78;4.03;;;;;;;;;;5091955;28;20260;-15
2022/09/11 11:51:19;;;;;;;5.80;4.15;;;;;;;;;;5093129;28;20279;-15
2022/09/11 11:53:51;;;;;;;8.88;4.60;;;;;;;;;;5079034;28;20240;-15
2022/09/11 11:56:20;;;;;;;8.68;4.80;;;;;;;;;;5071614;28;20230;-15
2022/09/11 11:58:50;;;;;;;7.40;4.20;;;;;;;;;;5072107;28;20235;-15
2022/09/11 12:01:19;;;;;;;8.73;3.88;;;;;;;;;;5076809;28;20291;-15
2022/09/11 12:03:47;;;;;;;5.07;4.10;;;;;;;;;;5085062;28;20232;-15
2022/09/11 12:06:14;;;;;;;7.82;3.90;;;;;;;;;;5082000;28;20229;-15
2022/09/11 12:08:43;;;;;;;5.85;4.15;;;;;;;;;;5072181;28;21022;-15
2022/09/11 12:11:12;;;;;;;4.13;3.72;;;;;;;;;;5071305;28;20233;-15
2022/09/11 12:13:41;;;;;;;5.45;4.30;;;;;;;;;;5082555;28;20270;-15
2022/09/11 12:16:10;;;;;;;5.20;3.80;;;;;;;;;;5081808;28;20315;-15
2022/09/11 12:18:39;;;;;;;6.47;4.18;;;;;;;;;;5064228;28;20241;-15
2022/09/11 12:21:21;;;;;;;4.95;3.78;;;;;;;;;;5072058;28;20237;-15
2022/09/11 12:24:07;;;;;;;5.15;4.03;;;;;;;;;;5024416;28;20939;-15
2022/09/11 12:26:36;;;;;;;4.75;3.92;;;;;;;;;;5051665;28;20666;-15
2022/09/11 12:29:19;;;;;;;5.68;3.90;;;;;;;;;;5067604;28;20284;-15
2022/09/11 12:32:16;;;;;;;5.00;4.03;;;;;;;;;;5038007;28;20295;-15
2022/09/11 12:34:57;;;;;;;4.90;4.38;;;;;;;;;;5065577;28;20232;-15
2022/09/11 12:37:25;;;;;;;4.68;3.90;;;;;;;;;;5078698;28;20234;-15
2022/09/11 12:39:53;;;;;;;5.53;4.18;;;;;;;;;;5070880;28;20275;-15
2022/09/11 12:42:41;;;;;;;8.52;3.88;;;;;;;;;;5071391;28;20253;-15
2022/09/11 12:45:28;;;;;;;4.55;3.83;;;;;;;;;;5070912;28;20253;-15
2022/09/11 12:47:57;;;;;;;4.57;4.18;;;;;;;;;;5077829;28;20225;-15
2022/09/11 12:50:25;;;;;;;4.53;3.50;;;;;;;;;;5079766;28;20233;-15
2022/09/11 12:52:53;;;;;;;6.07;3.30;;;;;;;;;;5064826;28;20229;-15
2022/09/11 12:55:26;;;;;;;5.05;3.17;;;;;;;;;;5062936;28;20225;-15
2022/09/11 12:57:53;;;;;;;7.15;3.70;;;;;;;;;;5064360;28;20226;-15
2022/09/11 13:00:23;;;;;;;6.75;3.40;;;;;;;;;;5069445;28;20233;-15
2022/09/11 13:02:51;;;;;;;7.60;3.47;;;;;;;;;;5069897;28;20221;-15
2022/09/11 13:05:20;;;;;;;3.72;3.30;;;;;;;;;;5064945;28;20276;-15
2022/09/11 13:07:49;;;;;;;6.57;3.63;;;;;;;;;;5075806;28;20278;-15
2022/09/11 13:10:23;;;;;;;4.30;3.25;;;;;;;;;;5090955;28;20255;-15
2022/09/11 13:12:51;;;;;;;6.22;3.55;;;;;;;;;;5086211;28;20231;-15
2022/09/11 13:15:36;;;;;;;5.00;3.60;;;;;;;;;;5089384;28;20278;-15
2022/09/11 13:18:34;;;;;;;6.57;3.65;;;;;;;;;;5070577;28;20268;-14
2022/09/11 13:21:03;;;;;;;5.57;3.50;;;;;;;;;;5008483;28;20270;-15
2022/09/11 13:23:31;;;;;;;5.20;3.10;;;;;;;;;;5055950;28;20245;-15
2022/09/11 13:25:59;;;;;;;6.05;3.38;;;;;;;;;;5069963;28;20229;-15
2022/09/11 13:28:27;;;;;;;8.45;3.08;;;;;;;;;;5080298;28;20217;-14
2022/09/11 13:30:56;;;;;;;4.70;2.80;;;;;;;;;;5083806;28;20217;-15
2022/09/11 13:33:26;;;;;;;4.05;2.80;;;;;;;;;;5069794;28;20669;-15
2022/09/11 13:35:54;;;;;;;3.20;2.90;;;;;;;;;;5071630;28;20229;-15
2022/09/11 13:38:22;;;;;;;3.90;2.90;;;;;;;;;;5080566;28;20222;-15
2022/09/11 13:40:50;;;;;;;4.00;3.20;;;;;;;;;;5070220;28;20260;-15
2022/09/11 13:43:19;;;;;;;4.55;3.08;;;;;;;;;;5068823;28;20233;-15
2022/09/11 13:45:46;;;;;;;3.60;2.97;;;;;;;;;;5069887;28;20217;-15
2022/09/11 13:48:21;;;;;;;3.03;2.70;;;;;;;;;;5067561;28;20325;-15
2022/09/11 13:50:49;;;;;;;3.17;2.90;;;;;;;;;;5077440;28;21105;-15
2022/09/11 13:53:16;;;;;;;3.22;2.70;;;;;;;;;;5090032;28;20796;-15
2022/09/11 13:55:45;;;;;;;3.38;2.72;;;;;;;;;;5076442;28;21040;-14
2022/09/11 13:58:20;;;;;;;3.20;2.88;;;;;;;;;;5078700;28;20712;-15
2022/09/11 14:00:47;;;;;;;8.10;2.65;;;;;;;;;;5084402;28;20233;-15
2022/09/11 14:03:23;;;;;;;8.57;3.20;;;;;;;;;;5070481;28;20225;-15
2022/09/11 14:05:52;;;;;;;4.10;3.03;;;;;;;;;;5069722;28;20310;-15
2022/09/11 14:08:26;;;;;;;5.05;3.05;;;;;;;;;;5069972;28;20284;-15
2022/09/11 14:10:55;;;;;;;8.00;3.40;;;;;;;;;;5070000;28;20761;-15
2022/09/11 14:13:23;;;;;;;5.13;2.95;;;;;;;;;;5070326;28;20720;-15
2022/09/11 14:15:52;;;;;;;6.95;3.78;;;;;;;;;;5069818;28;21018;-15
2022/09/11 14:18:28;;;;;;;10.70;3.70;;;;;;;;;;5069010;28;21103;-15
2022/09/11 14:20:55;;;;;;;5.55;3.80;;;;;;;;;;5070419;28;20267;-15
2022/09/11 14:23:23;;;;;;;5.50;3.80;;;;;;;;;;5080082;28;20248;-15
2022/09/11 14:26:18;;;;;;;7.40;3.70;;;;;;;;;;5085493;28;20217;-15
2022/09/11 14:28:46;;;;;;;4.13;3.13;;;;;;;;;;5032984;28;20221;-15
2022/09/11 14:31:14;;;;;;;9.68;3.33;;;;;;;;;;5070044;28;20295;-15
2022/09/11 14:33:42;;;;;;;9.95;3.60;;;;;;;;;;5081373;28;21001;-15
2022/09/11 14:36:13;;;;;;;3.95;3.00;;;;;;;;;;5088782;28;21054;-15
2022/09/11 14:38:41;;;;;;;7.40;3.58;;;;;;;;;;5085423;28;20660;-15
2022/09/11 14:41:08;;;;;;;12.88;3.53;;;;;;;;;;5070849;28;20319;-15
2022/09/11 14:43:37;;;;;;;7.68;3.65;;;;;;;;;;5069971;28;20221;-15
2022/09/11 14:46:04;;;;;;;8.75;3.03;;;;;;;;;;5077636;28;20226;-15
2022/09/11 14:48:33;;;;;;;5.63;3.05;;;;;;;;;;5069906;28;20284;-15
2022/09/11 14:51:05;;;;;;;4.07;2.92;;;;;;;;;;5068929;28;20233;-15
2022/09/11 14:53:41;;;;;;;5.32;3.13;;;;;;;;;;5082734;28;20335;-15
2022/09/11 14:56:09;;;;;;;7.00;2.95;;;;;;;;;;5092991;28;20224;-14